Conditions actuelles
Pluie




Pression
29.73 (inHG) - 1006.92 (mb)
Visibilité

10.0 (km) - 6.2 (miles)
   Température
10  °C
50°F
8  °C
Point de rosée
88  %
 Humidité
   Vitesse du vent
13  km/h
7  kts
8  mph
3.6  m/s
   Direction du vent
 230°
Sud Ouest
   Données d'aéroport
LFBU
Location Angoulême-Brie-Champniers Airport 6 km (3.73 mi)
Metar :LFBU 250230Z AUTO 23007KT 200V260 9999 -RA FEW038/// SCT052/// BKN076/// ///TCU 10/08 Q1007
25-09-2020 04:30:00
   Information brute de métar
Le METAR brut est le format le plus répandu dans le monde pour la transmission de données météorologiques d'observation. Il est hautement standardisé par l'Organisation de l'aviation civile internationale (OACI), ce qui lui permet d'être compris dans la plupart des pays.
   API Info
Données fournies par
https://www.checkwx.com/weather/LFBU
   © Info
Les scripts CSS / SVG / PHP ont été développés par weather34.com pour une utilisation dans le modèle weather34 © 2015-2020

Guide Info fourni par Metar-Wikipedia